Eko 2 — SY9957 — position and weather

sailwx.info

Track history (hours):
 
Tides and Currents Weather Stations Pressure Air Temp Water Temp Dewpoint Dewpoint Depression Visibility Wind Speed Wind Dir Waves Ship Positions

Eko 2

Last reported at 2017-Mar-22 11:12 UTC. Time now 2017-Mar-23 06:08 UTC.
Position N 37°23' E 025°06'.

Length 89 m; draft 4.3 m.

Type: Ship (hazmat cat A). MMSI: 240827000.

Date/timePositionNaut miles runAvg speedWind from/ knotsBaromVisibWave heightAir tempDewpointWater temp
2017-Mar-22 11:12N 37°23' E 025°06'6 9.6
2017-Mar-22 10:34N 37°20' E 025°12'10 9.7
2017-Mar-22 09:33N 37°17' E 025°24'19 9.7
2017-Mar-22 07:33N 37°11' E 025°47'  
2017-Mar-17 06:33N 37°16' E 025°30'1010.4
2017-Mar-17 05:33N 37°21' E 025°20'6 6.4
2017-Mar-17 04:33N 37°28' E 025°20'0 0.0
2017-Mar-17 03:33N 37°28' E 025°20'0 0.0
2017-Mar-17 02:33N 37°28' E 025°20'0 0.0
2017-Mar-17 01:33N 37°28' E 025°20'0 0.0
2017-Mar-17 00:33N 37°28' E 025°20'0 0.0
2017-Mar-16 23:33N 37°28' E 025°20'0 0.0
2017-Mar-16 22:33N 37°28' E 025°20'0 0.0
2017-Mar-16 21:27N 37°28' E 025°20'0 0.0
2017-Mar-16 20:27N 37°28' E 025°20'0 0.0
2017-Mar-16 19:33N 37°28' E 025°20'0 0.0
2017-Mar-16 18:33N 37°28' E 025°20'0 0.5
2017-Mar-16 17:34N 37°28' E 025°19'12 0.6
2017-Mar-15 21:33N 37°19' E 025°09'10 9.9
2017-Mar-15 20:33N 37°11' E 025°17'7 6.5
2017-Mar-15 19:32N 37°06' E 025°22'0 0.0
2017-Mar-15 18:32N 37°06' E 025°22'0 0.0
2017-Mar-15 17:32N 37°06' E 025°22'0 0.0
2017-Mar-15 16:34N 37°06' E 025°22'0 0.0
2017-Mar-15 15:31N 37°06' E 025°22'0 0.0
2017-Mar-15 14:31N 37°06' E 025°22'1 0.9
2017-Mar-15 13:33N 37°06' E 025°21'2 2.1
2017-Mar-15 12:32N 37°04' E 025°20'0 0.0
2017-Mar-15 11:32N 37°04' E 025°20'0 0.0
2017-Mar-15 10:29N 37°04' E 025°20'0 0.0
2017-Mar-15 09:32N 37°04' E 025°20'0 0.0
2017-Mar-15 08:34N 37°04' E 025°20'0 0.0
2017-Mar-15 07:32N 37°04' E 025°20'0 0.0
2017-Mar-15 06:32N 37°04' E 025°20'0 0.0
2017-Mar-15 05:32N 37°04' E 025°20'0 0.0
2017-Mar-15 04:32N 37°04' E 025°20'0 0.0
2017-Mar-15 03:32N 37°04' E 025°20'0 0.0
2017-Mar-15 02:29N 37°04' E 025°20'0 0.0
2017-Mar-15 01:33N 37°04' E 025°20'0 0.0
2017-Mar-15 00:33N 37°04' E 025°20'0 0.0
2017-Mar-14 23:33N 37°04' E 025°20'0 0.2
2017-Mar-14 22:33N 37°04' E 025°20'8 7.6
2017-Mar-14 21:34N 37°10' E 025°14'  
Track history (hours):
 
Tides and Currents Weather Stations Pressure Air Temp Water Temp Dewpoint Dewpoint Depression Visibility Wind Speed Wind Dir Waves Ship Positions

Eko 2

Last reported at 2017-Mar-22 11:12 UTC. Time now 2017-Mar-23 06:08 UTC.
Position N 37°23' E 025°06'.

Length 89 m; draft 4.3 m.

Type: Ship (hazmat cat A). MMSI: 240827000.

Date/timePositionNaut miles runAvg speedWind from/ knotsBaromVisibWave heightAir tempDewpointWater temp
2017-Mar-22 11:12N 37°23' E 025°06'6 9.6
2017-Mar-22 10:34N 37°20' E 025°12'10 9.7
2017-Mar-22 09:33N 37°17' E 025°24'19 9.7
2017-Mar-22 07:33N 37°11' E 025°47'  
2017-Mar-17 06:33N 37°16' E 025°30'1010.4
2017-Mar-17 05:33N 37°21' E 025°20'6 6.4
2017-Mar-17 04:33N 37°28' E 025°20'0 0.0
2017-Mar-17 03:33N 37°28' E 025°20'0 0.0
2017-Mar-17 02:33N 37°28' E 025°20'0 0.0
2017-Mar-17 01:33N 37°28' E 025°20'0 0.0
2017-Mar-17 00:33N 37°28' E 025°20'0 0.0
2017-Mar-16 23:33N 37°28' E 025°20'0 0.0
2017-Mar-16 22:33N 37°28' E 025°20'0 0.0
2017-Mar-16 21:27N 37°28' E 025°20'0 0.0
2017-Mar-16 20:27N 37°28' E 025°20'0 0.0
2017-Mar-16 19:33N 37°28' E 025°20'0 0.0
2017-Mar-16 18:33N 37°28' E 025°20'0 0.5
2017-Mar-16 17:34N 37°28' E 025°19'12 0.6
2017-Mar-15 21:33N 37°19' E 025°09'10 9.9
2017-Mar-15 20:33N 37°11' E 025°17'7 6.5
2017-Mar-15 19:32N 37°06' E 025°22'0 0.0
2017-Mar-15 18:32N 37°06' E 025°22'0 0.0
2017-Mar-15 17:32N 37°06' E 025°22'0 0.0
2017-Mar-15 16:34N 37°06' E 025°22'0 0.0
2017-Mar-15 15:31N 37°06' E 025°22'0 0.0
2017-Mar-15 14:31N 37°06' E 025°22'1 0.9
2017-Mar-15 13:33N 37°06' E 025°21'2 2.1
2017-Mar-15 12:32N 37°04' E 025°20'0 0.0
2017-Mar-15 11:32N 37°04' E 025°20'0 0.0
2017-Mar-15 10:29N 37°04' E 025°20'0 0.0
2017-Mar-15 09:32N 37°04' E 025°20'0 0.0
2017-Mar-15 08:34N 37°04' E 025°20'0 0.0
2017-Mar-15 07:32N 37°04' E 025°20'0 0.0
2017-Mar-15 06:32N 37°04' E 025°20'0 0.0
2017-Mar-15 05:32N 37°04' E 025°20'0 0.0
2017-Mar-15 04:32N 37°04' E 025°20'0 0.0
2017-Mar-15 03:32N 37°04' E 025°20'0 0.0
2017-Mar-15 02:29N 37°04' E 025°20'0 0.0
2017-Mar-15 01:33N 37°04' E 025°20'0 0.0
2017-Mar-15 00:33N 37°04' E 025°20'0 0.0
2017-Mar-14 23:33N 37°04' E 025°20'0 0.2
2017-Mar-14 22:33N 37°04' E 025°20'8 7.6
2017-Mar-14 21:34N 37°10' E 025°14'  

Dump ship's entire track history